Time;durP1;ratioP1;P1;durP2;ratioP2;P2;SDS_P1;SDS_P2;PMS_P1;PMS_P2;Temp;Humidity;BMP_temperature;BMP_pressure;BME280_temperature;BME280_humidity;BME280_pressure;Samples;Min_cycle;Max_cycle;Signal;HPM_P1;HPM_P2
2022/07/27 00:02:22;;;;;;;11.02;9.27;;;;;;;;;;5029129;28;20021;-71
2022/07/27 00:04:48;;;;;;;10.20;9.20;;;;;;;;;;5028999;28;20040;-72
2022/07/27 00:07:14;;;;;;;11.38;9.57;;;;;;;;;;5028500;28;20075;-71
2022/07/27 00:09:40;;;;;;;10.75;9.65;;;;;;;;;;5025509;28;20022;-73
2022/07/27 00:12:06;;;;;;;14.02;10.35;;;;;;;;;;5036551;28;20021;-71
2022/07/27 00:14:33;;;;;;;14.02;10.40;;;;;;;;;;5026501;28;21044;-72
2022/07/27 00:16:59;;;;;;;11.50;9.43;;;;;;;;;;5028583;28;20047;-71
2022/07/27 00:19:25;;;;;;;11.10;9.82;;;;;;;;;;5026599;28;20111;-72
2022/07/27 00:21:51;;;;;;;11.15;9.85;;;;;;;;;;5028377;28;20021;-72
2022/07/27 00:24:18;;;;;;;14.95;10.20;;;;;;;;;;5029107;28;20048;-71
2022/07/27 00:26:44;;;;;;;14.30;10.18;;;;;;;;;;5033608;28;20024;-72
2022/07/27 00:29:10;;;;;;;12.52;10.35;;;;;;;;;;5026671;28;20040;-72
2022/07/27 00:31:36;;;;;;;14.30;10.63;;;;;;;;;;5027970;28;20331;-71
2022/07/27 00:34:03;;;;;;;12.02;9.85;;;;;;;;;;5028497;28;20017;-72
2022/07/27 00:36:29;;;;;;;11.02;9.93;;;;;;;;;;5026929;28;20021;-73
2022/07/27 00:38:55;;;;;;;14.75;9.77;;;;;;;;;;5028125;28;20478;-73
2022/07/27 00:41:21;;;;;;;10.60;9.57;;;;;;;;;;5027037;28;20083;-72
2022/07/27 00:43:58;;;;;;;11.30;8.82;;;;;;;;;;5034658;28;20458;-71
2022/07/27 00:46:25;;;;;;;9.75;8.75;;;;;;;;;;5027914;28;20502;-72
2022/07/27 00:48:52;;;;;;;10.95;9.57;;;;;;;;;;5027832;28;20524;-72
2022/07/27 00:51:19;;;;;;;11.18;9.27;;;;;;;;;;5027660;28;20075;-72
2022/07/27 00:53:47;;;;;;;12.30;9.57;;;;;;;;;;5026419;28;20022;-72
2022/07/27 00:56:13;;;;;;;10.27;9.23;;;;;;;;;;5027749;28;20033;-71
2022/07/27 00:58:40;;;;;;;9.85;8.77;;;;;;;;;;5030587;28;20074;-71
2022/07/27 01:01:06;;;;;;;12.32;9.68;;;;;;;;;;5015041;28;20025;-70
2022/07/27 01:03:32;;;;;;;10.75;8.90;;;;;;;;;;5024368;28;20034;-70
2022/07/27 01:05:59;;;;;;;10.20;9.07;;;;;;;;;;5027809;28;20017;-72
2022/07/27 01:08:25;;;;;;;13.00;9.23;;;;;;;;;;5026345;28;20100;-71
2022/07/27 01:10:52;;;;;;;13.45;10.15;;;;;;;;;;5025758;28;20534;-73
2022/07/27 01:13:18;;;;;;;11.60;10.35;;;;;;;;;;5026176;28;20022;-74
2022/07/27 01:15:44;;;;;;;11.32;10.18;;;;;;;;;;5026070;28;20021;-73
2022/07/27 01:18:26;;;;;;;10.55;9.27;;;;;;;;;;5024427;28;20247;-72
2022/07/27 01:20:52;;;;;;;9.80;8.80;;;;;;;;;;5025392;28;20030;-73
2022/07/27 01:23:18;;;;;;;11.98;9.80;;;;;;;;;;5027160;28;20061;-72
2022/07/27 01:25:44;;;;;;;10.85;9.77;;;;;;;;;;5031412;28;20052;-73
2022/07/27 01:28:10;;;;;;;12.15;9.90;;;;;;;;;;5025647;28;20024;-71
2022/07/27 01:30:37;;;;;;;10.82;9.73;;;;;;;;;;5025231;28;20029;-72
2022/07/27 01:33:04;;;;;;;11.48;9.45;;;;;;;;;;5026758;28;20045;-72
2022/07/27 01:35:30;;;;;;;11.15;9.75;;;;;;;;;;5027135;28;20029;-74
2022/07/27 01:37:56;;;;;;;10.50;9.10;;;;;;;;;;5026907;28;20023;-72
2022/07/27 01:40:23;;;;;;;9.50;8.32;;;;;;;;;;5025434;28;20060;-73
2022/07/27 01:42:49;;;;;;;9.70;8.57;;;;;;;;;;5020950;28;20021;-74
2022/07/27 01:45:15;;;;;;;9.35;8.43;;;;;;;;;;5026737;28;20024;-72
2022/07/27 01:47:41;;;;;;;9.48;8.57;;;;;;;;;;5026705;28;20698;-72
2022/07/27 01:50:08;;;;;;;12.65;9.13;;;;;;;;;;5025374;28;20021;-71
2022/07/27 01:52:34;;;;;;;11.50;9.32;;;;;;;;;;5026396;28;20083;-73
2022/07/27 01:55:00;;;;;;;10.15;9.13;;;;;;;;;;5024890;28;20030;-73
2022/07/27 01:57:26;;;;;;;13.20;8.90;;;;;;;;;;5026730;28;20025;-73
2022/07/27 01:59:53;;;;;;;12.80;8.68;;;;;;;;;;5026605;28;20474;-72
2022/07/27 02:02:19;;;;;;;9.57;8.57;;;;;;;;;;5025128;28;20041;-73
2022/07/27 02:04:45;;;;;;;13.40;8.57;;;;;;;;;;5026420;28;20021;-72
2022/07/27 02:07:11;;;;;;;8.77;7.97;;;;;;;;;;5033127;28;20017;-75
2022/07/27 02:09:37;;;;;;;8.90;8.00;;;;;;;;;;5028034;28;20018;-74
2022/07/27 02:14:48;;;;;;;9.80;8.80;;;;;;;;;;5026010;28;20060;-72
2022/07/27 02:17:15;;;;;;;10.55;8.15;;;;;;;;;;5024763;28;20031;-71
2022/07/27 02:19:41;;;;;;;11.23;8.40;;;;;;;;;;5026695;28;20160;-73
2022/07/27 02:22:07;;;;;;;10.63;8.55;;;;;;;;;;5025829;28;20029;-73
2022/07/27 02:24:36;;;;;;;9.93;9.02;;;;;;;;;;5024842;28;20017;-72
2022/07/27 02:27:02;;;;;;;10.32;9.32;;;;;;;;;;5025879;28;20056;-73
2022/07/27 02:29:29;;;;;;;11.30;8.88;;;;;;;;;;5025932;28;20381;-72
2022/07/27 02:31:55;;;;;;;10.27;8.98;;;;;;;;;;5018656;28;20052;-75
2022/07/27 02:34:22;;;;;;;14.40;9.68;;;;;;;;;;5025754;28;20095;-72
2022/07/27 02:36:48;;;;;;;12.43;9.43;;;;;;;;;;5026357;28;20036;-74
2022/07/27 02:39:14;;;;;;;10.48;9.38;;;;;;;;;;5024325;28;20025;-75
2022/07/27 02:41:40;;;;;;;12.98;10.00;;;;;;;;;;5026429;28;20029;-72
2022/07/27 02:44:06;;;;;;;10.35;9.32;;;;;;;;;;5029843;28;20474;-73
2022/07/27 02:46:33;;;;;;;10.10;9.05;;;;;;;;;;5030059;28;20025;-72
2022/07/27 02:48:59;;;;;;;10.20;9.10;;;;;;;;;;5030285;28;20043;-73
2022/07/27 02:51:25;;;;;;;10.10;8.82;;;;;;;;;;5029336;28;20478;-73
2022/07/27 02:53:51;;;;;;;12.77;8.98;;;;;;;;;;5028335;28;21504;-73
2022/07/27 02:56:17;;;;;;;10.50;9.60;;;;;;;;;;5029853;28;20443;-73
2022/07/27 02:58:43;;;;;;;11.63;9.68;;;;;;;;;;5029945;28;20029;-73
2022/07/27 03:01:09;;;;;;;10.15;9.20;;;;;;;;;;5029962;28;20022;-72
2022/07/27 03:03:37;;;;;;;15.65;11.20;;;;;;;;;;5029661;28;20010;-71
2022/07/27 03:06:04;;;;;;;10.50;9.43;;;;;;;;;;5029673;28;20486;-73
2022/07/27 03:08:30;;;;;;;9.70;8.57;;;;;;;;;;5028190;28;20028;-73
2022/07/27 03:10:56;;;;;;;10.07;8.23;;;;;;;;;;5029912;28;20072;-75
2022/07/27 03:13:22;;;;;;;9.82;8.63;;;;;;;;;;5029383;28;20025;-73
2022/07/27 03:15:48;;;;;;;11.38;8.57;;;;;;;;;;5027998;28;20044;-73
2022/07/27 03:18:14;;;;;;;13.70;8.70;;;;;;;;;;5022774;28;20030;-72
2022/07/27 03:20:41;;;;;;;10.73;8.73;;;;;;;;;;5024611;28;20078;-75
2022/07/27 03:23:07;;;;;;;9.85;8.80;;;;;;;;;;5022891;28;20017;-72
2022/07/27 03:25:33;;;;;;;9.63;8.70;;;;;;;;;;5024443;28;20022;-74
2022/07/27 03:27:59;;;;;;;12.93;8.40;;;;;;;;;;5024234;28;20053;-72
2022/07/27 03:30:25;;;;;;;9.82;8.68;;;;;;;;;;5024132;28;20080;-73
2022/07/27 03:32:51;;;;;;;9.30;8.23;;;;;;;;;;5024276;28;20498;-72
2022/07/27 03:35:18;;;;;;;11.80;8.73;;;;;;;;;;5032396;28;20017;-72
2022/07/27 03:37:44;;;;;;;10.40;9.00;;;;;;;;;;5022391;28;20296;-72
2022/07/27 03:40:10;;;;;;;10.82;8.98;;;;;;;;;;5023924;28;20025;-72
2022/07/27 03:42:37;;;;;;;9.70;8.73;;;;;;;;;;5024507;28;20029;-73
2022/07/27 03:45:03;;;;;;;9.20;8.35;;;;;;;;;;5024271;28;20028;-74
2022/07/27 03:47:29;;;;;;;11.75;8.05;;;;;;;;;;5016341;28;20558;-72
2022/07/27 03:49:55;;;;;;;12.60;9.13;;;;;;;;;;5021184;28;20017;-72
2022/07/27 03:52:22;;;;;;;11.65;9.90;;;;;;;;;;5021404;28;20112;-73
2022/07/27 03:54:48;;;;;;;12.50;9.63;;;;;;;;;;5021416;28;20394;-72
2022/07/27 03:57:14;;;;;;;10.77;9.57;;;;;;;;;;5020339;28;20041;-73
2022/07/27 03:59:40;;;;;;;11.57;8.65;;;;;;;;;;5019491;28;20033;-72
2022/07/27 04:02:07;;;;;;;10.38;8.52;;;;;;;;;;5021267;28;20571;-71
2022/07/27 04:04:33;;;;;;;9.77;8.52;;;;;;;;;;5021715;28;20029;-73
2022/07/27 04:06:59;;;;;;;10.13;9.13;;;;;;;;;;5020357;28;20426;-76
2022/07/27 04:09:25;;;;;;;9.63;8.63;;;;;;;;;;5021452;28;20025;-73
2022/07/27 04:11:51;;;;;;;11.20;8.98;;;;;;;;;;5020743;28;20065;-73
2022/07/27 04:14:18;;;;;;;10.50;8.63;;;;;;;;;;5021037;28;20458;-72
2022/07/27 04:16:44;;;;;;;10.52;8.68;;;;;;;;;;5019148;28;20470;-73
2022/07/27 04:19:10;;;;;;;11.77;9.23;;;;;;;;;;5013484;28;20071;-72
2022/07/27 04:21:37;;;;;;;10.85;8.50;;;;;;;;;;5019451;28;20045;-72
2022/07/27 04:24:03;;;;;;;12.20;9.98;;;;;;;;;;5028361;28;20085;-74
2022/07/27 04:26:30;;;;;;;13.57;10.43;;;;;;;;;;5021362;28;20474;-73
2022/07/27 04:28:56;;;;;;;9.88;8.38;;;;;;;;;;5021278;28;20034;-73
2022/07/27 04:31:23;;;;;;;10.88;8.70;;;;;;;;;;5018967;28;20053;-72
2022/07/27 04:33:49;;;;;;;9.60;8.60;;;;;;;;;;5019288;28;20182;-73
2022/07/27 04:36:15;;;;;;;9.57;8.32;;;;;;;;;;5020947;28;20036;-72
2022/07/27 04:38:41;;;;;;;9.65;8.65;;;;;;;;;;5020581;28;20033;-72
2022/07/27 04:41:08;;;;;;;8.90;8.00;;;;;;;;;;5019623;28;20029;-74
2022/07/27 04:43:34;;;;;;;9.55;8.57;;;;;;;;;;5019539;28;20471;-72
2022/07/27 04:46:04;;;;;;;11.18;8.90;;;;;;;;;;5019448;28;20021;-72
2022/07/27 04:48:32;;;;;;;10.68;7.57;;;;;;;;;;5018918;28;20029;-73
2022/07/27 04:50:59;;;;;;;10.05;9.00;;;;;;;;;;5019929;28;20502;-72
2022/07/27 04:53:25;;;;;;;12.93;9.68;;;;;;;;;;5020509;28;20364;-74
2022/07/27 04:55:52;;;;;;;11.45;8.85;;;;;;;;;;5022808;28;20044;-72
2022/07/27 04:58:18;;;;;;;10.43;9.43;;;;;;;;;;5021128;28;20504;-73
2022/07/27 05:00:44;;;;;;;21.52;10.88;;;;;;;;;;5022499;28;20409;-74
2022/07/27 05:03:13;;;;;;;10.23;9.25;;;;;;;;;;5020886;28;20431;-74
2022/07/27 05:05:40;;;;;;;13.25;10.73;;;;;;;;;;5021627;28;20029;-72
2022/07/27 05:08:06;;;;;;;14.40;11.30;;;;;;;;;;5019213;28;20484;-72
2022/07/27 05:10:32;;;;;;;13.60;10.88;;;;;;;;;;5022551;28;20120;-73
2022/07/27 05:12:59;;;;;;;12.70;11.35;;;;;;;;;;5021869;28;20022;-71
2022/07/27 05:15:25;;;;;;;12.95;11.10;;;;;;;;;;5022570;28;20115;-72
2022/07/27 05:17:52;;;;;;;15.65;11.15;;;;;;;;;;5020424;28;20029;-71
2022/07/27 05:20:19;;;;;;;17.38;11.73;;;;;;;;;;5018547;28;20025;-73
2022/07/27 05:22:45;;;;;;;15.02;12.85;;;;;;;;;;5022157;28;20022;-72
2022/07/27 05:25:11;;;;;;;17.20;14.00;;;;;;;;;;5022259;28;20029;-72
2022/07/27 05:27:38;;;;;;;17.90;13.88;;;;;;;;;;5021728;28;20477;-71
2022/07/27 05:30:06;;;;;;;15.20;12.10;;;;;;;;;;5021084;28;20080;-71
2022/07/27 05:32:32;;;;;;;16.10;12.10;;;;;;;;;;5022077;28;20069;-71
2022/07/27 05:34:58;;;;;;;14.48;11.60;;;;;;;;;;5018371;28;20492;-71
2022/07/27 05:37:25;;;;;;;13.68;9.95;;;;;;;;;;5019891;28;20282;-72
2022/07/27 05:39:51;;;;;;;13.88;11.02;;;;;;;;;;5018541;28;20075;-71
2022/07/27 05:42:17;;;;;;;17.70;10.65;;;;;;;;;;5019113;28;20339;-71
2022/07/27 05:44:43;;;;;;;10.73;9.63;;;;;;;;;;5019669;28;20032;-71
2022/07/27 05:47:09;;;;;;;11.88;10.02;;;;;;;;;;5019682;28;20438;-71
2022/07/27 05:49:35;;;;;;;14.73;9.73;;;;;;;;;;5023536;28;20050;-71
2022/07/27 05:52:01;;;;;;;12.65;10.07;;;;;;;;;;5020039;28;20068;-71
2022/07/27 05:54:28;;;;;;;10.10;9.10;;;;;;;;;;5019157;28;20071;-70
2022/07/27 05:56:54;;;;;;;12.73;9.80;;;;;;;;;;5017580;28;20072;-71
2022/07/27 05:59:20;;;;;;;17.88;9.93;;;;;;;;;;5018916;28;20053;-71
2022/07/27 06:01:46;;;;;;;12.40;9.52;;;;;;;;;;5019121;28;20021;-71
2022/07/27 06:04:13;;;;;;;11.40;10.27;;;;;;;;;;5019706;28;20020;-70
2022/07/27 06:24:44;;;;;;;68.82;15.18;;;;;;;;;;5098676;27;20385;-74
2022/07/27 06:27:11;;;;;;;90.20;17.17;;;;;;;;;;5096290;28;21569;-74
2022/07/27 06:29:37;;;;;;;20.55;10.02;;;;;;;;;;5098712;28;20020;-74
2022/07/27 06:32:03;;;;;;;24.35;10.88;;;;;;;;;;5098080;28;20544;-73
2022/07/27 06:34:29;;;;;;;14.30;10.63;;;;;;;;;;5090707;28;20055;-71
2022/07/27 06:36:58;;;;;;;10.75;9.05;;;;;;;;;;5096430;28;20049;-72
2022/07/27 06:39:24;;;;;;;18.75;10.60;;;;;;;;;;5097906;28;20520;-74
2022/07/27 06:41:50;;;;;;;11.80;9.77;;;;;;;;;;5095224;28;20514;-72
2022/07/27 06:44:16;;;;;;;24.98;10.48;;;;;;;;;;5095652;28;20108;-73
2022/07/27 06:46:42;;;;;;;17.13;9.90;;;;;;;;;;5093440;28;20016;-72
2022/07/27 06:49:09;;;;;;;23.83;11.48;;;;;;;;;;5094228;28;20142;-71
2022/07/27 06:51:37;;;;;;;18.35;10.05;;;;;;;;;;5062258;28;20127;-74
2022/07/27 06:54:04;;;;;;;18.95;9.90;;;;;;;;;;5075185;28;20020;-71
2022/07/27 06:56:30;;;;;;;13.93;9.88;;;;;;;;;;5076767;28;20016;-74
2022/07/27 06:58:56;;;;;;;11.68;9.23;;;;;;;;;;5077175;28;20028;-73
2022/07/27 07:01:22;;;;;;;16.30;9.38;;;;;;;;;;5076756;28;20016;-74
2022/07/27 07:03:48;;;;;;;16.60;9.18;;;;;;;;;;5076898;28;20028;-73
2022/07/27 07:06:15;;;;;;;17.10;9.85;;;;;;;;;;5075860;28;20020;-70
2022/07/27 07:08:41;;;;;;;12.25;8.48;;;;;;;;;;5075170;28;20044;-71
2022/07/27 07:11:09;;;;;;;16.63;9.57;;;;;;;;;;5076987;28;20027;-71
2022/07/27 07:13:35;;;;;;;12.05;8.68;;;;;;;;;;5069101;28;20024;-70
2022/07/27 07:16:01;;;;;;;15.75;9.60;;;;;;;;;;5071427;28;20016;-70
2022/07/27 07:18:27;;;;;;;13.20;9.60;;;;;;;;;;5075783;28;20028;-72
2022/07/27 07:20:54;;;;;;;11.73;9.07;;;;;;;;;;5076850;28;20024;-70
2022/07/27 07:23:20;;;;;;;9.40;7.90;;;;;;;;;;5075487;28;20040;-71
2022/07/27 07:25:46;;;;;;;8.75;7.88;;;;;;;;;;5062895;28;20025;-72
2022/07/27 07:28:12;;;;;;;10.43;7.63;;;;;;;;;;5053816;28;20032;-74
2022/07/27 07:30:38;;;;;;;8.00;7.18;;;;;;;;;;5061581;28;21363;-74
2022/07/27 07:33:05;;;;;;;11.48;7.32;;;;;;;;;;5051765;28;20036;-71
2022/07/27 07:35:31;;;;;;;8.45;7.05;;;;;;;;;;5062196;28;20035;-69
2022/07/27 07:37:57;;;;;;;12.63;7.40;;;;;;;;;;5060840;28;20028;-70
2022/07/27 07:40:24;;;;;;;12.45;6.93;;;;;;;;;;5060346;28;20052;-71
2022/07/27 07:42:54;;;;;;;8.98;7.32;;;;;;;;;;5062174;28;20111;-71
2022/07/27 07:45:24;;;;;;;7.80;6.83;;;;;;;;;;5062234;28;20033;-77
2022/07/27 07:47:50;;;;;;;9.57;7.20;;;;;;;;;;5063031;28;20039;-74
2022/07/27 07:50:17;;;;;;;9.02;7.07;;;;;;;;;;5060831;28;20056;-72
2022/07/27 07:52:43;;;;;;;9.90;6.95;;;;;;;;;;5063241;28;20453;-71
2022/07/27 07:55:10;;;;;;;12.80;7.18;;;;;;;;;;5062079;28;20043;-70
2022/07/27 07:57:36;;;;;;;12.88;7.43;;;;;;;;;;5056608;28;20035;-75
2022/07/27 08:00:04;;;;;;;10.38;7.18;;;;;;;;;;5061368;28;20100;-72
2022/07/27 08:02:30;;;;;;;8.07;6.68;;;;;;;;;;5058479;28;20024;-74
2022/07/27 08:04:56;;;;;;;7.40;6.30;;;;;;;;;;5057473;28;20028;-76
2022/07/27 08:07:22;;;;;;;9.40;7.28;;;;;;;;;;5056733;28;20077;-75
2022/07/27 08:09:49;;;;;;;7.57;6.88;;;;;;;;;;5060565;28;20029;-72
2022/07/27 08:12:15;;;;;;;9.55;7.00;;;;;;;;;;5060596;28;20029;-71
2022/07/27 08:14:41;;;;;;;12.23;7.97;;;;;;;;;;5057961;28;20488;-75
2022/07/27 08:17:07;;;;;;;12.57;7.57;;;;;;;;;;5060152;28;20020;-76
2022/07/27 08:19:33;;;;;;;10.65;6.97;;;;;;;;;;5061710;28;20044;-71
2022/07/27 08:22:00;;;;;;;16.85;8.98;;;;;;;;;;5061843;28;20036;-73
2022/07/27 08:24:26;;;;;;;11.70;7.90;;;;;;;;;;5062263;28;20063;-78
2022/07/27 08:26:52;;;;;;;12.55;7.50;;;;;;;;;;5059986;28;20536;-76
2022/07/27 08:29:18;;;;;;;25.15;8.07;;;;;;;;;;5062543;28;20465;-74
2022/07/27 08:31:44;;;;;;;14.55;8.43;;;;;;;;;;5061968;28;20028;-75
2022/07/27 08:34:10;;;;;;;14.02;8.20;;;;;;;;;;5061346;28;20033;-76
2022/07/27 08:36:37;;;;;;;13.00;7.45;;;;;;;;;;5060043;28;20024;-74
2022/07/27 08:39:07;;;;;;;11.55;6.82;;;;;;;;;;5060333;28;20097;-74
2022/07/27 08:41:33;;;;;;;8.35;7.03;;;;;;;;;;5061317;28;20033;-73
2022/07/27 08:44:00;;;;;;;9.73;7.03;;;;;;;;;;5062213;28;20111;-73
2022/07/27 08:46:27;;;;;;;13.05;7.97;;;;;;;;;;5060742;28;20377;-76
2022/07/27 08:48:53;;;;;;;11.07;7.70;;;;;;;;;;5061804;28;20093;-76
2022/07/27 08:51:19;;;;;;;11.43;7.18;;;;;;;;;;5060254;28;20293;-73
2022/07/27 08:53:46;;;;;;;10.45;6.95;;;;;;;;;;5061355;28;20048;-76
2022/07/27 08:56:13;;;;;;;9.20;7.10;;;;;;;;;;5061608;28;20407;-75
2022/07/27 08:58:39;;;;;;;7.63;6.65;;;;;;;;;;5059968;28;20062;-74
2022/07/27 09:01:05;;;;;;;8.70;6.10;;;;;;;;;;5061449;28;20032;-76
2022/07/27 09:03:31;;;;;;;7.43;5.50;;;;;;;;;;5059110;28;20036;-75
2022/07/27 09:05:57;;;;;;;6.40;5.78;;;;;;;;;;5059598;28;20093;-73
2022/07/27 09:08:25;;;;;;;7.05;6.15;;;;;;;;;;5060536;28;20021;-74
2022/07/27 09:10:55;;;;;;;9.40;6.53;;;;;;;;;;5053155;28;20024;-75
2022/07/27 09:13:21;;;;;;;9.30;6.90;;;;;;;;;;5057361;28;20106;-73
2022/07/27 09:15:49;;;;;;;6.20;5.60;;;;;;;;;;5060796;28;20036;-73
2022/07/27 09:18:19;;;;;;;7.93;6.40;;;;;;;;;;5059994;28;20052;-75
2022/07/27 09:20:46;;;;;;;6.85;6.05;;;;;;;;;;5060841;28;20116;-72
2022/07/27 09:23:12;;;;;;;6.20;5.47;;;;;;;;;;5059860;28;20496;-74
2022/07/27 09:25:38;;;;;;;8.88;6.30;;;;;;;;;;5060988;28;20013;-76
2022/07/27 09:28:05;;;;;;;7.75;5.97;;;;;;;;;;5057917;28;20025;-73
2022/07/27 09:30:31;;;;;;;7.78;6.50;;;;;;;;;;5059173;28;20689;-75
2022/07/27 09:33:07;;;;;;;9.48;6.47;;;;;;;;;;5059116;28;20032;-72
2022/07/27 09:35:34;;;;;;;10.88;6.85;;;;;;;;;;5060556;28;20027;-74
2022/07/27 09:38:19;;;;;;;6.68;5.65;;;;;;;;;;5059807;28;20044;-72
2022/07/27 09:40:47;;;;;;;6.75;6.05;;;;;;;;;;5060649;28;20468;-74
2022/07/27 09:43:13;;;;;;;7.05;6.18;;;;;;;;;;5060216;28;20040;-78
2022/07/27 09:45:43;;;;;;;7.15;6.32;;;;;;;;;;5058909;28;20081;-77
2022/07/27 09:48:14;;;;;;;7.35;5.57;;;;;;;;;;5060378;28;20037;-81
2022/07/27 09:50:42;;;;;;;6.30;5.53;;;;;;;;;;5061130;28;20392;-74
2022/07/27 09:53:15;;;;;;;6.10;5.57;;;;;;;;;;5060362;28;20020;-75
2022/07/27 09:55:42;;;;;;;8.45;5.97;;;;;;;;;;5060172;28;20111;-75
2022/07/27 09:58:08;;;;;;;6.05;5.45;;;;;;;;;;5058530;28;20052;-75
2022/07/27 10:00:34;;;;;;;6.80;5.78;;;;;;;;;;5059473;28;20054;-74
2022/07/27 10:03:01;;;;;;;8.73;6.25;;;;;;;;;;5058377;28;20074;-71
2022/07/27 10:05:28;;;;;;;5.78;5.22;;;;;;;;;;5057415;28;20021;-74
2022/07/27 10:07:54;;;;;;;6.40;5.82;;;;;;;;;;5060096;28;20658;-75
2022/07/27 10:10:21;;;;;;;8.57;6.30;;;;;;;;;;5060543;28;20298;-75
2022/07/27 10:12:48;;;;;;;5.90;5.32;;;;;;;;;;5058350;28;20430;-76
2022/07/27 10:15:15;;;;;;;5.70;5.20;;;;;;;;;;5058664;28;20028;-72
2022/07/27 10:17:42;;;;;;;7.25;5.57;;;;;;;;;;5059911;28;20082;-72
2022/07/27 10:20:09;;;;;;;7.78;6.05;;;;;;;;;;5058979;28;20307;-77
2022/07/27 10:22:50;;;;;;;6.88;5.82;;;;;;;;;;5058194;28;20044;-74
2022/07/27 10:25:16;;;;;;;7.15;6.22;;;;;;;;;;5060111;28;20055;-73
2022/07/27 10:27:45;;;;;;;7.57;6.10;;;;;;;;;;5059891;28;20484;-76
2022/07/27 10:30:13;;;;;;;7.90;6.03;;;;;;;;;;5060266;28;20020;-73
2022/07/27 10:32:43;;;;;;;6.70;5.82;;;;;;;;;;5059225;28;20027;-70
2022/07/27 10:35:29;;;;;;;9.30;6.43;;;;;;;;;;5057656;28;20020;-73
2022/07/27 10:38:14;;;;;;;12.55;6.18;;;;;;;;;;5059750;28;20029;-75
2022/07/27 10:40:42;;;;;;;7.82;5.93;;;;;;;;;;5055863;28;20048;-74
2022/07/27 10:43:28;;;;;;;7.95;6.22;;;;;;;;;;5055841;28;20066;-73
2022/07/27 10:45:57;;;;;;;6.75;6.15;;;;;;;;;;5059695;28;20027;-74
2022/07/27 10:48:41;;;;;;;6.15;5.65;;;;;;;;;;5060143;28;20482;-76
2022/07/27 10:51:08;;;;;;;9.90;6.28;;;;;;;;;;5058239;28;20032;-76
2022/07/27 10:53:38;;;;;;;6.50;6.00;;;;;;;;;;5060077;28;20030;-74
2022/07/27 10:56:05;;;;;;;7.53;6.13;;;;;;;;;;5058500;28;20439;-76
2022/07/27 10:58:31;;;;;;;6.07;5.50;;;;;;;;;;5060179;28;20640;-75
2022/07/27 11:00:58;;;;;;;6.53;5.85;;;;;;;;;;5061768;28;20021;-72
2022/07/27 11:03:35;;;;;;;8.90;6.32;;;;;;;;;;5063604;28;20028;-71
2022/07/27 11:06:22;;;;;;;10.70;6.40;;;;;;;;;;5060990;28;20040;-72
2022/07/27 11:08:49;;;;;;;7.15;6.45;;;;;;;;;;5061809;28;20541;-73
2022/07/27 11:11:16;;;;;;;8.85;5.90;;;;;;;;;;5063700;28;20032;-73
2022/07/27 11:13:42;;;;;;;6.50;5.90;;;;;;;;;;5062314;28;20052;-71
2022/07/27 11:16:10;;;;;;;6.40;5.80;;;;;;;;;;5061724;28;20511;-78
2022/07/27 11:18:38;;;;;;;8.48;6.05;;;;;;;;;;5062933;28;20028;-71
2022/07/27 11:21:23;;;;;;;6.97;6.28;;;;;;;;;;5061265;28;20036;-76
2022/07/27 11:23:54;;;;;;;14.93;6.28;;;;;;;;;;5063420;28;20071;-79
2022/07/27 11:26:21;;;;;;;9.35;6.45;;;;;;;;;;5063266;28;20380;-80
2022/07/27 11:28:47;;;;;;;8.18;5.40;;;;;;;;;;5061712;28;20056;-73
2022/07/27 11:31:14;;;;;;;6.78;5.95;;;;;;;;;;5061181;28;20074;-78
2022/07/27 11:33:54;;;;;;;6.95;6.20;;;;;;;;;;5063228;28;20689;-78
2022/07/27 11:36:21;;;;;;;7.32;6.07;;;;;;;;;;5061086;28;20025;-71
2022/07/27 11:38:50;;;;;;;6.63;6.03;;;;;;;;;;5060569;28;20025;-70
2022/07/27 11:41:24;;;;;;;10.15;6.00;;;;;;;;;;5061119;28;20032;-70
2022/07/27 11:43:50;;;;;;;6.75;6.13;;;;;;;;;;5056521;28;20115;-73
2022/07/27 11:46:18;;;;;;;6.47;5.88;;;;;;;;;;5061976;28;20063;-71
2022/07/27 11:48:48;;;;;;;6.85;6.07;;;;;;;;;;5061583;28;20024;-71
2022/07/27 11:51:16;;;;;;;8.43;6.17;;;;;;;;;;5061589;28;20051;-71
2022/07/27 11:53:42;;;;;;;7.55;6.40;;;;;;;;;;5063334;28;20032;-70
2022/07/27 11:56:08;;;;;;;7.35;5.72;;;;;;;;;;5060161;28;20170;-73
2022/07/27 11:58:55;;;;;;;7.13;6.35;;;;;;;;;;5061588;28;20028;-71
2022/07/27 12:01:37;;;;;;;9.25;7.03;;;;;;;;;;5060224;28;20212;-71
2022/07/27 12:04:08;;;;;;;7.20;6.05;;;;;;;;;;5062207;28;20535;-72
2022/07/27 12:06:35;;;;;;;10.10;6.80;;;;;;;;;;5062538;28;20440;-71
2022/07/27 12:09:03;;;;;;;8.00;6.43;;;;;;;;;;5061234;28;20027;-71
2022/07/27 12:11:44;;;;;;;7.20;5.72;;;;;;;;;;5061465;28;20426;-70
2022/07/27 12:14:11;;;;;;;6.90;6.30;;;;;;;;;;5062408;28;20036;-70
2022/07/27 12:16:37;;;;;;;7.43;6.10;;;;;;;;;;5060385;28;20578;-71
2022/07/27 12:19:03;;;;;;;8.10;5.97;;;;;;;;;;5062062;28;20024;-71
2022/07/27 12:21:29;;;;;;;11.15;6.88;;;;;;;;;;5061809;28;20035;-72
2022/07/27 12:23:57;;;;;;;7.68;6.80;;;;;;;;;;5061631;28;20124;-72
2022/07/27 12:26:26;;;;;;;9.98;5.88;;;;;;;;;;5058952;28;20044;-71
2022/07/27 12:29:08;;;;;;;7.88;6.68;;;;;;;;;;5058293;28;20598;-70
2022/07/27 12:31:36;;;;;;;7.03;6.30;;;;;;;;;;5055306;28;20016;-70
2022/07/27 12:34:05;;;;;;;6.82;6.13;;;;;;;;;;5060316;28;20033;-71
2022/07/27 12:36:32;;;;;;;8.15;6.30;;;;;;;;;;5058919;28;20023;-71
2022/07/27 12:38:58;;;;;;;6.95;6.35;;;;;;;;;;5060262;28;20023;-72
2022/07/27 12:41:29;;;;;;;6.85;6.32;;;;;;;;;;5061600;28;20469;-72
2022/07/27 12:43:55;;;;;;;;;;;;;;;;;;5061081;28;20040;-72
2022/07/27 12:46:21;;;;;;;7.22;5.63;;;;;;;;;;5059628;28;19923;-76
2022/07/27 12:48:47;;;;;;;6.72;6.05;;;;;;;;;;5061781;28;20046;-74
2022/07/27 12:51:13;;;;;;;6.93;6.32;;;;;;;;;;5061089;28;20032;-72
2022/07/27 12:53:40;;;;;;;9.43;6.60;;;;;;;;;;5060633;28;20028;-73
2022/07/27 12:56:08;;;;;;;7.00;6.30;;;;;;;;;;5060892;28;20039;-73
2022/07/27 12:58:36;;;;;;;7.00;6.30;;;;;;;;;;5061765;28;20012;-73
2022/07/27 13:01:03;;;;;;;7.40;6.57;;;;;;;;;;5058588;28;20048;-72
2022/07/27 13:03:29;;;;;;;7.43;6.00;;;;;;;;;;5061694;28;20109;-74
2022/07/27 13:05:55;;;;;;;6.88;6.15;;;;;;;;;;5061558;28;20012;-73
2022/07/27 13:08:22;;;;;;;7.82;5.50;;;;;;;;;;5061308;28;20031;-73
2022/07/27 13:10:50;;;;;;;6.28;5.68;;;;;;;;;;5061636;28;20400;-73
2022/07/27 13:13:19;;;;;;;7.35;5.75;;;;;;;;;;5059323;28;20029;-74
2022/07/27 13:15:45;;;;;;;6.72;6.13;;;;;;;;;;5061209;28;20023;-73
2022/07/27 13:18:11;;;;;;;6.32;5.72;;;;;;;;;;5061063;28;20503;-76
2022/07/27 13:20:38;;;;;;;6.53;5.93;;;;;;;;;;5061079;28;20537;-73
2022/07/27 13:23:06;;;;;;;6.03;5.53;;;;;;;;;;5059817;28;20044;-72
2022/07/27 13:25:32;;;;;;;6.45;5.75;;;;;;;;;;5059198;28;20492;-73
2022/07/27 13:27:59;;;;;;;9.40;5.97;;;;;;;;;;5060942;28;20165;-73
2022/07/27 13:30:25;;;;;;;6.10;5.55;;;;;;;;;;5060924;28;20020;-74
2022/07/27 13:32:51;;;;;;;6.53;5.97;;;;;;;;;;5058733;28;20027;-77
2022/07/27 13:35:18;;;;;;;6.13;5.63;;;;;;;;;;5059622;28;20033;-72
2022/07/27 13:37:44;;;;;;;5.97;5.47;;;;;;;;;;5058944;28;20485;-72
2022/07/27 13:40:10;;;;;;;6.63;6.03;;;;;;;;;;5059866;28;20056;-73
2022/07/27 13:42:37;;;;;;;6.63;5.93;;;;;;;;;;5059370;28;20132;-73
2022/07/27 13:45:04;;;;;;;6.40;5.43;;;;;;;;;;5060658;28;20024;-72
2022/07/27 13:47:30;;;;;;;7.40;5.68;;;;;;;;;;5057918;28;20026;-73
2022/07/27 13:49:56;;;;;;;6.10;5.50;;;;;;;;;;5059771;28;20089;-72
2022/07/27 13:52:23;;;;;;;6.95;5.88;;;;;;;;;;5056852;28;20028;-72
2022/07/27 13:54:49;;;;;;;6.53;5.82;;;;;;;;;;5055388;28;20469;-72
2022/07/27 13:57:15;;;;;;;9.27;5.78;;;;;;;;;;5058272;28;20052;-72
2022/07/27 13:59:42;;;;;;;6.07;5.50;;;;;;;;;;5060613;28;20071;-73
2022/07/27 14:02:08;;;;;;;7.68;5.72;;;;;;;;;;5059764;28;20077;-73
2022/07/27 14:04:36;;;;;;;5.90;5.40;;;;;;;;;;5059782;28;20074;-73
2022/07/27 14:07:02;;;;;;;7.95;6.30;;;;;;;;;;5058219;28;20525;-72
2022/07/27 14:12:13;;;;;;;7.30;6.13;;;;;;;;;;5058335;28;20117;-72
2022/07/27 14:14:39;;;;;;;8.18;5.97;;;;;;;;;;5060632;28;20044;-71
2022/07/27 14:17:06;;;;;;;7.90;5.93;;;;;;;;;;5058252;28;20025;-72
2022/07/27 14:19:32;;;;;;;6.78;6.18;;;;;;;;;;5059729;28;20025;-74
2022/07/27 14:21:58;;;;;;;7.90;6.28;;;;;;;;;;5060375;28;20062;-73
2022/07/27 14:24:25;;;;;;;6.05;5.40;;;;;;;;;;5058671;28;20051;-71
2022/07/27 14:26:51;;;;;;;7.32;6.13;;;;;;;;;;5060221;28;20024;-73
2022/07/27 14:29:17;;;;;;;7.03;5.75;;;;;;;;;;5057957;28;20032;-72
2022/07/27 14:31:43;;;;;;;8.00;6.20;;;;;;;;;;5057699;28;20130;-72
2022/07/27 14:34:09;;;;;;;9.10;6.43;;;;;;;;;;5060413;28;20033;-72
2022/07/27 14:36:36;;;;;;;6.00;5.47;;;;;;;;;;5056449;28;20020;-73
2022/07/27 14:39:02;;;;;;;6.68;5.88;;;;;;;;;;5063403;28;20082;-71
2022/07/27 14:41:30;;;;;;;8.02;6.05;;;;;;;;;;5062719;28;20629;-71
2022/07/27 14:43:56;;;;;;;8.07;6.38;;;;;;;;;;5060062;28;20037;-72
2022/07/27 14:46:22;;;;;;;8.35;6.30;;;;;;;;;;5061996;28;20035;-72
2022/07/27 14:48:48;;;;;;;6.57;5.78;;;;;;;;;;5063983;28;20046;-72
2022/07/27 14:51:15;;;;;;;7.50;6.20;;;;;;;;;;5063457;28;20103;-72
2022/07/27 14:53:41;;;;;;;8.00;6.30;;;;;;;;;;5062159;28;20031;-73
2022/07/27 14:56:07;;;;;;;6.88;6.28;;;;;;;;;;5061223;28;20035;-74
2022/07/27 14:58:33;;;;;;;7.15;6.40;;;;;;;;;;5061738;28;20058;-72
2022/07/27 15:01:00;;;;;;;7.57;5.75;;;;;;;;;;5061931;28;20108;-72